Time;durP1;ratioP1;P1;durP2;ratioP2;P2;SDS_P1;SDS_P2;PMS_P1;PMS_P2;Temp;Humidity;BMP_temperature;BMP_pressure;BME280_temperature;BME280_humidity;BME280_pressure;Samples;Min_cycle;Max_cycle;Signal;HPM_P1;HPM_P2
2021/10/24 00:01:00;;;;;;;;;;;7.40;99.90;;;;;;4974851;28;19938;-74
2021/10/24 00:03:26;;;;;;;;;;;7.50;99.90;;;;;;4973622;28;19906;-74
2021/10/24 00:05:52;;;;;;;;;;;7.50;99.90;;;;;;4975009;28;20243;-74
2021/10/24 00:08:18;;;;;;;;;;;7.60;99.90;;;;;;4974812;28;19906;-73
2021/10/24 00:10:43;;;;;;;;;;;7.70;99.90;;;;;;4974829;28;20370;-74
2021/10/24 00:13:09;;;;;;;;;;;7.60;99.90;;;;;;4975324;28;20323;-73
2021/10/24 00:15:35;;;;;;;;;;;7.50;99.90;;;;;;4976008;28;20441;-74
2021/10/24 00:18:00;;;;;;;;;;;7.60;99.90;;;;;;4978962;28;19910;-74
2021/10/24 00:20:26;;;;;;;;;;;7.50;99.90;;;;;;4978621;28;19915;-73
2021/10/24 00:22:51;;;;;;;;;;;7.40;99.90;;;;;;4978554;28;19961;-74
2021/10/24 00:25:17;;;;;;;;;;;7.40;99.90;;;;;;4978492;28;19910;-74
2021/10/24 00:27:42;;;;;;;;;;;7.30;99.90;;;;;;4978555;28;19969;-74
2021/10/24 00:30:08;;;;;;;;;;;7.10;99.90;;;;;;4978467;28;19910;-74
2021/10/24 00:32:34;;;;;;;;;;;7.00;99.90;;;;;;4978410;28;20362;-74
2021/10/24 00:34:59;;;;;;;;;;;7.20;99.90;;;;;;4978629;28;19916;-74
2021/10/24 00:37:25;;;;;;;;;;;7.20;99.90;;;;;;4978304;28;19906;-74
2021/10/24 00:39:51;;;;;;;;;;;7.30;99.90;;;;;;4993199;28;19929;-74
2021/10/24 00:42:16;;;;;;;;;;;7.00;99.90;;;;;;4978539;28;19906;-73
2021/10/24 00:44:42;;;;;;;;;;;7.00;99.90;;;;;;4978118;28;19910;-74
2021/10/24 00:47:07;;;;;;;;;;;7.10;99.90;;;;;;4978425;28;19914;-74
2021/10/24 00:49:34;;;;;;;;;;;7.10;99.90;;;;;;4978141;28;19906;-73
2021/10/24 00:52:00;;;;;;;;;;;7.20;99.90;;;;;;4978642;28;20149;-73
2021/10/24 00:54:27;;;;;;;;;;;7.30;99.90;;;;;;4978013;28;19956;-74
2021/10/24 00:56:56;;;;;;;;;;;7.50;99.90;;;;;;4977993;28;19906;-74
2021/10/24 00:59:22;;;;;;;;;;;7.60;99.90;;;;;;4976677;28;19906;-74
2021/10/24 01:01:47;;;;;;;;;;;7.60;99.90;;;;;;4978196;28;19913;-73
2021/10/24 01:04:13;;;;;;;;;;;7.60;99.90;;;;;;4977783;28;20012;-74
2021/10/24 01:06:40;;;;;;;;;;;7.50;99.90;;;;;;4977856;28;20278;-74
2021/10/24 01:09:07;;;;;;;;;;;7.50;99.90;;;;;;4978027;28;19906;-74
2021/10/24 01:11:33;;;;;;;;;;;7.20;99.90;;;;;;4978008;28;19953;-74
2021/10/24 01:13:59;;;;;;;;;;;7.30;99.90;;;;;;4977928;28;19910;-74
2021/10/24 01:16:25;;;;;;;;;;;7.40;99.90;;;;;;4977624;28;19998;-74
2021/10/24 01:18:50;;;;;;;;;;;7.60;99.90;;;;;;4977544;28;19911;-74
2021/10/24 01:21:16;;;;;;;;;;;7.80;99.90;;;;;;4977489;28;19971;-74
2021/10/24 01:23:42;;;;;;;;;;;7.90;99.90;;;;;;4977459;28;19906;-74
2021/10/24 01:26:08;;;;;;;;;;;7.90;99.90;;;;;;4977101;28;19910;-73
2021/10/24 01:28:33;;;;;;;;;;;8.10;99.90;;;;;;4977021;28;19925;-74
2021/10/24 01:30:59;;;;;;;;;;;8.20;99.90;;;;;;4977916;28;20007;-74
2021/10/24 01:33:26;;;;;;;;;;;8.40;99.90;;;;;;4977333;28;19921;-74
2021/10/24 01:35:52;;;;;;;;;;;8.50;99.90;;;;;;4978030;28;19910;-73
2021/10/24 01:38:18;;;;;;;;;;;8.40;99.90;;;;;;4977234;28;20374;-73
2021/10/24 01:40:44;;;;;;;;;;;8.40;99.90;;;;;;4975905;28;19992;-74
2021/10/24 01:43:09;;;;;;;;;;;8.50;99.90;;;;;;4977143;28;20413;-74
2021/10/24 01:45:35;;;;;;;;;;;8.60;99.90;;;;;;4977026;28;20275;-73
2021/10/24 01:48:01;;;;;;;;;;;8.50;99.90;;;;;;4977624;28;19906;-74
2021/10/24 01:50:26;;;;;;;;;;;8.50;99.90;;;;;;4977020;28;19914;-74
2021/10/24 01:52:52;;;;;;;;;;;8.40;99.90;;;;;;4977275;28;20358;-73
2021/10/24 01:55:18;;;;;;;;;;;8.50;99.90;;;;;;4976945;28;19906;-73
2021/10/24 01:57:45;;;;;;;;;;;8.50;99.90;;;;;;4977788;28;20301;-74
2021/10/24 02:00:12;;;;;;;;;;;8.60;99.90;;;;;;4977035;28;19913;-73
2021/10/24 02:02:37;;;;;;;;;;;8.50;99.90;;;;;;4976833;28;19942;-73
2021/10/24 02:05:03;;;;;;;;;;;8.30;99.90;;;;;;4977213;28;19957;-74
2021/10/24 02:07:28;;;;;;;;;;;8.30;99.90;;;;;;4977004;28;19906;-74
2021/10/24 02:09:54;;;;;;;;;;;8.30;99.90;;;;;;4976681;28;19957;-74
2021/10/24 02:12:20;;;;;;;;;;;8.10;99.90;;;;;;4976903;28;19910;-74
2021/10/24 02:14:45;;;;;;;;;;;8.00;99.90;;;;;;4976556;28;19989;-74
2021/10/24 02:17:11;;;;;;;;;;;7.90;99.90;;;;;;4976523;28;20362;-73
2021/10/24 02:19:36;;;;;;;;;;;7.90;99.90;;;;;;4976754;28;19960;-74
2021/10/24 02:22:03;;;;;;;;;;;7.90;99.90;;;;;;4976330;28;19906;-74
2021/10/24 02:24:29;;;;;;;;;;;8.00;99.90;;;;;;4976265;28;19910;-73
2021/10/24 02:26:54;;;;;;;;;;;7.90;99.90;;;;;;4976618;28;20276;-73
2021/10/24 02:29:20;;;;;;;;;;;8.00;99.90;;;;;;4976810;28;19910;-73
2021/10/24 02:31:45;;;;;;;;;;;8.10;99.90;;;;;;4976188;28;19910;-74
2021/10/24 02:34:11;;;;;;;;;;;8.20;99.90;;;;;;4976457;28;19913;-74
2021/10/24 02:36:36;;;;;;;;;;;8.20;99.90;;;;;;4976138;28;20001;-73
2021/10/24 02:39:03;;;;;;;;;;;8.30;99.90;;;;;;4975944;28;19914;-73
2021/10/24 02:41:29;;;;;;;;;;;8.20;99.90;;;;;;4976100;28;19906;-73
2021/10/24 02:43:54;;;;;;;;;;;8.10;99.90;;;;;;4975962;28;19906;-74
2021/10/24 02:46:20;;;;;;;;;;;8.20;99.90;;;;;;4976263;28;19910;-73
2021/10/24 02:48:45;;;;;;;;;;;8.10;99.90;;;;;;4975935;28;19906;-74
2021/10/24 02:51:11;;;;;;;;;;;8.00;99.90;;;;;;4976153;28;20317;-74
2021/10/24 02:53:36;;;;;;;;;;;8.00;99.90;;;;;;4975823;28;19972;-74
2021/10/24 02:56:02;;;;;;;;;;;7.90;99.90;;;;;;4975789;28;19913;-74
2021/10/24 02:58:27;;;;;;;;;;;7.90;99.90;;;;;;4976304;28;19912;-74
2021/10/24 03:00:53;;;;;;;;;;;7.90;99.90;;;;;;4975698;28;20393;-74
2021/10/24 03:03:18;;;;;;;;;;;7.90;99.90;;;;;;4976225;28;19913;-73
2021/10/24 03:05:44;;;;;;;;;;;8.00;99.90;;;;;;4975561;28;19910;-74
2021/10/24 03:08:09;;;;;;;;;;;8.00;99.90;;;;;;4975878;28;19910;-73
2021/10/24 03:10:35;;;;;;;;;;;7.90;99.90;;;;;;4975541;28;19960;-73
2021/10/24 03:13:00;;;;;;;;;;;8.20;99.90;;;;;;4975782;28;20302;-73
2021/10/24 03:15:26;;;;;;;;;;;8.00;99.90;;;;;;4975456;28;19921;-73
2021/10/24 03:17:52;;;;;;;;;;;7.90;99.90;;;;;;4975402;28;19907;-74
2021/10/24 03:20:17;;;;;;;;;;;7.90;99.90;;;;;;4975399;28;20429;-73
2021/10/24 03:22:42;;;;;;;;;;;7.80;99.90;;;;;;4975324;28;19959;-74
2021/10/24 03:25:08;;;;;;;;;;;7.70;99.90;;;;;;4975258;28;20008;-74
2021/10/24 03:27:34;;;;;;;;;;;7.70;99.90;;;;;;4975100;28;19980;-74
2021/10/24 03:29:59;;;;;;;;;;;7.70;99.90;;;;;;4975238;28;20045;-74
2021/10/24 03:32:25;;;;;;;;;;;7.70;99.90;;;;;;4975788;28;19961;-74
2021/10/24 03:34:51;;;;;;;;;;;7.80;99.90;;;;;;4975165;28;19906;-74
2021/10/24 03:37:16;;;;;;;;;;;7.80;99.90;;;;;;4975141;28;19906;-73
2021/10/24 03:39:42;;;;;;;;;;;7.70;99.90;;;;;;4975402;28;19998;-73
2021/10/24 03:42:07;;;;;;;;;;;7.80;99.90;;;;;;4975101;28;19910;-73
2021/10/24 03:44:33;;;;;;;;;;;7.70;99.90;;;;;;4975009;28;19937;-74
2021/10/24 03:46:59;;;;;;;;;;;7.70;99.90;;;;;;4989988;28;20450;-74
2021/10/24 03:49:24;;;;;;;;;;;7.60;99.90;;;;;;4975199;28;20282;-73
2021/10/24 03:51:50;;;;;;;;;;;7.60;99.90;;;;;;4974990;28;19917;-73
2021/10/24 03:54:15;;;;;;;;;;;7.80;99.90;;;;;;4975257;28;19906;-73
2021/10/24 03:56:41;;;;;;;;;;;7.90;99.90;;;;;;4974859;28;19913;-73
2021/10/24 03:59:06;;;;;;;;;;;7.80;99.90;;;;;;4975173;28;19914;-73
2021/10/24 04:01:32;;;;;;;;;;;7.90;99.90;;;;;;4974866;28;19949;-74
2021/10/24 04:03:57;;;;;;;;;;;7.80;99.90;;;;;;4975047;28;19961;-74
2021/10/24 04:06:23;;;;;;;;;;;7.90;99.90;;;;;;4974846;28;20385;-74
2021/10/24 04:08:49;;;;;;;;;;;7.80;99.90;;;;;;4975109;28;20355;-73
2021/10/24 04:11:14;;;;;;;;;;;7.70;99.90;;;;;;4975098;28;19921;-74
2021/10/24 04:13:40;;;;;;;;;;;7.70;99.90;;;;;;4975054;28;20397;-74
2021/10/24 04:16:05;;;;;;;;;;;7.60;99.90;;;;;;4974778;28;19913;-73
2021/10/24 04:18:31;;;;;;;;;;;7.80;99.90;;;;;;4975265;28;20073;-73
2021/10/24 04:20:57;;;;;;;;;;;7.80;99.90;;;;;;4974984;28;19929;-73
2021/10/24 04:23:22;;;;;;;;;;;7.70;99.90;;;;;;4974586;28;19906;-73
2021/10/24 04:25:48;;;;;;;;;;;7.90;99.90;;;;;;4974893;28;19917;-74
2021/10/24 04:28:14;;;;;;;;;;;7.90;99.90;;;;;;4974571;28;20404;-73
2021/10/24 04:30:40;;;;;;;;;;;8.10;99.90;;;;;;4974883;28;20005;-73
2021/10/24 04:33:05;;;;;;;;;;;8.10;99.90;;;;;;4989549;28;19957;-74
2021/10/24 04:35:31;;;;;;;;;;;8.10;99.90;;;;;;4974850;28;19913;-74
2021/10/24 04:37:56;;;;;;;;;;;8.10;99.90;;;;;;4974564;28;19906;-74
2021/10/24 04:40:22;;;;;;;;;;;8.20;99.90;;;;;;4974803;28;19906;-74
2021/10/24 04:42:47;;;;;;;;;;;8.20;99.90;;;;;;4974526;28;19906;-74
2021/10/24 04:45:13;;;;;;;;;;;8.20;99.90;;;;;;4974384;28;19910;-74
2021/10/24 04:47:39;;;;;;;;;;;8.20;99.90;;;;;;4974493;28;19912;-74
2021/10/24 04:50:05;;;;;;;;;;;8.20;99.90;;;;;;4974436;28;20061;-73
2021/10/24 04:52:30;;;;;;;;;;;8.20;99.90;;;;;;4974680;28;20394;-74
2021/10/24 04:54:56;;;;;;;;;;;8.20;99.90;;;;;;4974379;28;19906;-73
2021/10/24 04:57:21;;;;;;;;;;;8.20;99.90;;;;;;4974655;28;19906;-73
2021/10/24 04:59:47;;;;;;;;;;;8.30;99.90;;;;;;4974379;28;20012;-73
2021/10/24 05:02:13;;;;;;;;;;;8.30;99.90;;;;;;4976390;28;19906;-73
2021/10/24 05:04:38;;;;;;;;;;;8.30;99.90;;;;;;4977800;28;19910;-73
2021/10/24 05:07:04;;;;;;;;;;;8.30;99.90;;;;;;4978098;28;19929;-73
2021/10/24 05:09:30;;;;;;;;;;;8.30;99.90;;;;;;4977778;28;19910;-73
2021/10/24 05:11:55;;;;;;;;;;;8.30;99.90;;;;;;4977983;28;19906;-73
2021/10/24 05:14:21;;;;;;;;;;;8.30;99.90;;;;;;4977669;28;19906;-74
2021/10/24 05:16:46;;;;;;;;;;;8.40;99.90;;;;;;4977904;28;19906;-74
2021/10/24 05:19:12;;;;;;;;;;;8.40;99.90;;;;;;4977588;28;19945;-73
2021/10/24 05:21:37;;;;;;;;;;;8.40;99.90;;;;;;4977837;28;19913;-74
2021/10/24 05:24:03;;;;;;;;;;;8.40;99.90;;;;;;4977305;28;19952;-74
2021/10/24 05:26:29;;;;;;;;;;;8.40;99.90;;;;;;4977512;28;19910;-73
2021/10/24 05:28:55;;;;;;;;;;;8.50;99.90;;;;;;4977419;28;19918;-74
2021/10/24 05:31:20;;;;;;;;;;;8.50;99.90;;;;;;4977685;28;19910;-74
2021/10/24 05:33:46;;;;;;;;;;;8.50;99.90;;;;;;4977354;28;20044;-74
2021/10/24 05:36:11;;;;;;;;;;;8.50;99.90;;;;;;4977562;28;19913;-73
2021/10/24 05:38:37;;;;;;;;;;;8.50;99.90;;;;;;4977248;28;20004;-73
2021/10/24 05:41:03;;;;;;;;;;;8.50;99.90;;;;;;4977213;28;19906;-74
2021/10/24 05:43:28;;;;;;;;;;;8.50;99.90;;;;;;4977434;28;19913;-74
2021/10/24 05:45:54;;;;;;;;;;;8.50;99.90;;;;;;4977049;28;19910;-74
2021/10/24 05:48:20;;;;;;;;;;;8.60;99.90;;;;;;4977330;28;20393;-74
2021/10/24 05:50:46;;;;;;;;;;;8.70;99.90;;;;;;4977609;28;19906;-73
2021/10/24 05:53:12;;;;;;;;;;;8.70;99.90;;;;;;4976993;28;20310;-74
2021/10/24 05:55:37;;;;;;;;;;;8.70;99.90;;;;;;4976979;28;19907;-74
2021/10/24 05:58:03;;;;;;;;;;;8.60;99.90;;;;;;4977221;28;19906;-74
2021/10/24 06:00:29;;;;;;;;;;;8.70;99.90;;;;;;4977119;28;20408;-74
2021/10/24 06:02:55;;;;;;;;;;;8.70;99.90;;;;;;4977070;28;19956;-73
2021/10/24 06:05:21;;;;;;;;;;;8.70;99.90;;;;;;4976689;28;19917;-74
2021/10/24 06:07:48;;;;;;;;;;;8.70;99.90;;;;;;4977052;28;20046;-74
2021/10/24 06:10:18;;;;;;;;;;;8.70;99.90;;;;;;4976704;28;19997;-73
2021/10/24 06:12:51;;;;;;;;;;;8.60;99.90;;;;;;4975997;28;20350;-73
2021/10/24 06:15:17;;;;;;;;;;;8.60;99.90;;;;;;4975085;28;19953;-73
2021/10/24 06:17:43;;;;;;;;;;;8.60;99.90;;;;;;4976874;28;19906;-73
2021/10/24 06:20:09;;;;;;;;;;;8.60;99.90;;;;;;4976792;28;19906;-73
2021/10/24 06:22:35;;;;;;;;;;;8.60;99.90;;;;;;4976985;28;19912;-73
2021/10/24 06:25:00;;;;;;;;;;;8.50;99.90;;;;;;4975050;28;20329;-73
2021/10/24 06:27:26;;;;;;;;;;;8.50;99.90;;;;;;4976345;28;19945;-73
2021/10/24 06:29:51;;;;;;;;;;;8.50;99.90;;;;;;4976582;28;19906;-73
2021/10/24 06:32:17;;;;;;;;;;;8.50;99.90;;;;;;4976234;28;20008;-73
2021/10/24 06:34:43;;;;;;;;;;;8.50;99.90;;;;;;4976195;28;19913;-73
2021/10/24 06:37:08;;;;;;;;;;;8.40;99.90;;;;;;4976172;28;19910;-73
2021/10/24 06:39:34;;;;;;;;;;;8.40;99.90;;;;;;4976112;28;19906;-74
2021/10/24 06:41:59;;;;;;;;;;;8.40;99.90;;;;;;4976338;28;19913;-73
2021/10/24 06:44:25;;;;;;;;;;;8.30;99.90;;;;;;4975943;28;20287;-73
2021/10/24 06:46:50;;;;;;;;;;;8.30;99.90;;;;;;4975975;28;19965;-73
2021/10/24 06:49:16;;;;;;;;;;;8.20;99.90;;;;;;4976245;28;19906;-73
2021/10/24 06:51:41;;;;;;;;;;;8.20;99.90;;;;;;4990852;28;19906;-73
2021/10/24 06:54:07;;;;;;;;;;;8.20;99.90;;;;;;4976108;28;19954;-73
2021/10/24 06:56:32;;;;;;;;;;;8.20;99.90;;;;;;4975795;28;20359;-74
2021/10/24 06:58:58;;;;;;;;;;;8.20;99.90;;;;;;4976305;28;19992;-73
2021/10/24 07:01:23;;;;;;;;;;;8.20;99.90;;;;;;4975998;28;19996;-74
2021/10/24 07:03:49;;;;;;;;;;;8.10;99.90;;;;;;4976208;28;19906;-74
2021/10/24 07:06:16;;;;;;;;;;;8.20;99.90;;;;;;4975836;28;19919;-73
2021/10/24 07:08:42;;;;;;;;;;;8.20;99.90;;;;;;4975766;28;19933;-74
2021/10/24 07:11:08;;;;;;;;;;;8.20;99.90;;;;;;4975863;28;19906;-74
2021/10/24 07:13:34;;;;;;;;;;;8.30;99.90;;;;;;4975827;28;20401;-74
2021/10/24 07:16:00;;;;;;;;;;;8.30;99.90;;;;;;4975780;28;20270;-73
2021/10/24 07:18:26;;;;;;;;;;;8.40;99.90;;;;;;4975465;28;19946;-73
2021/10/24 07:20:52;;;;;;;;;;;8.30;99.90;;;;;;4975423;28;19913;-74
2021/10/24 07:23:18;;;;;;;;;;;8.30;99.90;;;;;;4975337;28;19960;-74
2021/10/24 07:25:43;;;;;;;;;;;8.30;99.90;;;;;;4975029;28;19910;-74
2021/10/24 07:28:09;;;;;;;;;;;8.40;99.90;;;;;;4975131;28;19929;-73
2021/10/24 07:30:34;;;;;;;;;;;8.40;99.90;;;;;;4975801;28;19906;-73
2021/10/24 07:33:00;;;;;;;;;;;8.40;99.90;;;;;;4975270;28;19916;-74
2021/10/24 07:35:25;;;;;;;;;;;8.50;99.90;;;;;;4975494;28;19965;-73
2021/10/24 07:37:51;;;;;;;;;;;8.40;99.90;;;;;;4973936;28;19910;-73
2021/10/24 07:40:18;;;;;;;;;;;8.40;99.90;;;;;;4975161;28;19993;-73
2021/10/24 07:42:44;;;;;;;;;;;8.40;99.90;;;;;;4975399;28;19906;-74
2021/10/24 07:45:10;;;;;;;;;;;8.40;99.90;;;;;;4975015;28;20392;-74
2021/10/24 07:47:36;;;;;;;;;;;8.40;99.90;;;;;;4975351;28;19929;-74
2021/10/24 07:50:02;;;;;;;;;;;8.50;99.90;;;;;;4975015;28;20375;-74
2021/10/24 07:52:28;;;;;;;;;;;8.60;99.90;;;;;;4975004;28;19952;-73
2021/10/24 07:54:53;;;;;;;;;;;8.60;99.90;;;;;;4975226;28;19906;-73
2021/10/24 07:57:20;;;;;;;;;;;8.80;99.90;;;;;;4974923;28;19906;-73
2021/10/24 07:59:46;;;;;;;;;;;8.80;99.90;;;;;;4974907;28;19914;-73
2021/10/24 08:02:13;;;;;;;;;;;8.80;99.90;;;;;;4975444;28;19906;-74
2021/10/24 08:04:38;;;;;;;;;;;8.80;99.90;;;;;;4975045;28;20001;-74
2021/10/24 08:07:04;;;;;;;;;;;8.80;99.90;;;;;;4975373;28;19941;-74
2021/10/24 08:09:30;;;;;;;;;;;8.80;99.90;;;;;;4974862;28;19913;-74
2021/10/24 08:11:57;;;;;;;;;;;8.80;99.90;;;;;;4975103;28;19906;-74
2021/10/24 08:14:22;;;;;;;;;;;8.90;99.90;;;;;;4974807;28;19934;-74
2021/10/24 08:16:48;;;;;;;;;;;8.90;99.90;;;;;;4974719;28;19906;-73
2021/10/24 08:19:13;;;;;;;;;;;9.00;99.90;;;;;;4975269;28;19906;-73
2021/10/24 08:21:39;;;;;;;;;;;9.00;99.90;;;;;;4975006;28;19906;-73
2021/10/24 08:24:05;;;;;;;;;;;9.20;99.90;;;;;;4974542;28;19913;-74
2021/10/24 08:26:31;;;;;;;;;;;9.30;99.90;;;;;;4973281;28;19917;-73
2021/10/24 08:28:57;;;;;;;;;;;9.50;99.90;;;;;;4974686;28;19906;-74
2021/10/24 08:31:27;;;;;;;;;;;9.90;99.90;;;;;;4974628;28;19936;-74
2021/10/24 08:33:59;;;;;;;;;;;10.30;99.90;;;;;;4974869;28;19910;-74
2021/10/24 08:36:26;;;;;;;;;;;10.60;99.90;;;;;;4975578;28;19941;-73
2021/10/24 08:38:52;;;;;;;;;;;10.90;99.90;;;;;;4978931;28;19906;-74
2021/10/24 08:41:22;;;;;;;;;;;11.30;99.90;;;;;;4977065;28;19906;-74
2021/10/24 08:43:49;;;;;;;;;;;11.90;99.90;;;;;;4978812;28;19906;-74
2021/10/24 08:46:16;;;;;;;;;;;12.00;99.90;;;;;;4978144;28;20286;-74
2021/10/24 08:48:41;;;;;;;;;;;12.20;99.90;;;;;;4978433;28;19906;-74
2021/10/24 08:51:07;;;;;;;;;;;12.50;99.90;;;;;;4978126;28;19906;-74
2021/10/24 08:53:33;;;;;;;;;;;12.70;99.90;;;;;;4978321;28;20252;-74
2021/10/24 08:55:59;;;;;;;;;;;13.10;99.90;;;;;;4978061;28;20378;-74
2021/10/24 08:58:24;;;;;;;;;;;13.30;99.90;;;;;;4978031;28;19945;-74
2021/10/24 09:00:51;;;;;;;;;;;13.20;99.90;;;;;;4978230;28;20330;-74
2021/10/24 09:03:16;;;;;;;;;;;13.60;99.90;;;;;;4977911;28;19953;-74
2021/10/24 09:05:43;;;;;;;;;;;13.90;99.90;;;;;;4977822;28;19957;-74
2021/10/24 09:08:09;;;;;;;;;;;14.40;99.90;;;;;;4977882;28;19909;-74
2021/10/24 09:10:45;;;;;;;;;;;14.20;99.90;;;;;;4978108;28;20259;-74
2021/10/24 09:13:19;;;;;;;;;;;13.90;99.90;;;;;;4977718;28;19964;-74
2021/10/24 09:15:44;;;;;;;;;;;13.70;99.90;;;;;;4978000;28;19952;-74
2021/10/24 09:18:13;;;;;;;;;;;13.30;99.90;;;;;;4976417;28;19906;-74
2021/10/24 09:20:39;;;;;;;;;;;13.30;99.90;;;;;;4977912;28;19959;-74
2021/10/24 09:23:06;;;;;;;;;;;13.20;99.90;;;;;;4977522;28;19906;-74
2021/10/24 09:25:32;;;;;;;;;;;13.20;99.90;;;;;;4977462;28;20056;-74
2021/10/24 09:28:00;;;;;;;;;;;13.30;99.90;;;;;;4977440;28;19957;-74
2021/10/24 09:30:26;;;;;;;;;;;13.60;99.90;;;;;;4977701;28;19906;-74
2021/10/24 09:33:02;;;;;;;;;;;13.50;99.90;;;;;;4977405;28;19913;-74
2021/10/24 09:35:30;;;;;;;;;;;13.10;99.90;;;;;;4977971;28;19906;-74
2021/10/24 09:37:57;;;;;;;;;;;13.10;99.90;;;;;;4977287;28;19906;-74
2021/10/24 09:40:28;;;;;;;;;;;13.30;99.90;;;;;;4977271;28;19906;-74
2021/10/24 09:43:09;;;;;;;;;;;13.20;99.90;;;;;;4977743;28;19906;-74
2021/10/24 09:45:36;;;;;;;;;;;13.40;99.90;;;;;;4977071;28;19910;-74
2021/10/24 09:48:06;;;;;;;;;;;13.30;99.90;;;;;;4977256;28;19910;-74
2021/10/24 09:50:33;;;;;;;;;;;13.00;99.90;;;;;;4977066;28;19910;-74
2021/10/24 09:53:16;;;;;;;;;;;12.90;99.90;;;;;;4977013;28;20005;-73
2021/10/24 09:55:43;;;;;;;;;;;12.90;99.90;;;;;;4976999;28;19906;-74
2021/10/24 09:58:10;;;;;;;;;;;12.70;99.90;;;;;;4976936;28;20362;-74
2021/10/24 10:00:36;;;;;;;;;;;12.70;99.90;;;;;;4977460;28;20359;-74
2021/10/24 10:03:04;;;;;;;;;;;12.70;99.90;;;;;;4976856;28;19912;-74
2021/10/24 10:05:29;;;;;;;;;;;12.70;99.90;;;;;;4977005;28;19910;-74
2021/10/24 10:07:55;;;;;;;;;;;12.70;99.90;;;;;;4976717;28;19913;-74
2021/10/24 10:10:22;;;;;;;;;;;12.90;99.90;;;;;;4976666;28;20286;-74
2021/10/24 10:12:49;;;;;;;;;;;12.90;99.90;;;;;;4976929;28;19906;-74
2021/10/24 10:15:15;;;;;;;;;;;13.00;99.90;;;;;;4976526;28;19906;-73
2021/10/24 10:17:41;;;;;;;;;;;13.10;99.90;;;;;;4976855;28;20256;-74
2021/10/24 10:20:39;;;;;;;;;;;13.20;99.90;;;;;;4976823;28;19912;-74
2021/10/24 10:23:06;;;;;;;;;;;13.20;99.90;;;;;;4954296;28;19906;-74
2021/10/24 10:25:33;;;;;;;;;;;13.30;99.90;;;;;;4976684;28;19917;-74
2021/10/24 10:27:58;;;;;;;;;;;13.30;99.90;;;;;;4976167;28;20374;-74
2021/10/24 10:30:31;;;;;;;;;;;13.40;99.90;;;;;;4976306;28;19912;-74
2021/10/24 10:32:57;;;;;;;;;;;13.50;99.90;;;;;;4976540;28;19906;-74
2021/10/24 10:35:23;;;;;;;;;;;13.60;99.90;;;;;;4976224;28;20294;-74
2021/10/24 10:37:52;;;;;;;;;;;13.60;99.90;;;;;;4974936;28;20306;-73
2021/10/24 10:40:25;;;;;;;;;;;13.70;99.90;;;;;;4974876;28;19906;-73
2021/10/24 10:42:55;;;;;;;;;;;13.80;99.90;;;;;;4976367;28;19910;-73
2021/10/24 10:45:22;;;;;;;;;;;13.80;99.90;;;;;;4975985;28;19917;-73
2021/10/24 10:47:59;;;;;;;;;;;13.80;99.90;;;;;;4976308;28;19906;-74
2021/10/24 10:50:27;;;;;;;;;;;13.80;99.90;;;;;;4976285;28;19976;-74
2021/10/24 10:52:54;;;;;;;;;;;13.80;99.90;;;;;;4975901;28;19906;-73
2021/10/24 10:55:19;;;;;;;;;;;13.80;99.90;;;;;;4975855;28;19913;-74
2021/10/24 10:57:45;;;;;;;;;;;13.80;99.90;;;;;;4976087;28;19906;-74
2021/10/24 11:00:29;;;;;;;;;;;13.80;99.90;;;;;;4975243;28;19917;-73
2021/10/24 11:02:55;;;;;;;;;;;13.80;99.90;;;;;;4975717;28;19906;-74
2021/10/24 11:05:33;;;;;;;;;;;13.80;99.90;;;;;;4975651;28;20259;-73
2021/10/24 11:07:58;;;;;;;;;;;13.80;99.90;;;;;;4976556;28;19918;-73
2021/10/24 11:10:44;;;;;;;;;;;13.80;99.90;;;;;;4975913;28;19906;-74
2021/10/24 11:13:28;;;;;;;;;;;13.80;99.90;;;;;;4976177;28;19914;-73
2021/10/24 11:15:54;;;;;;;;;;;13.80;99.90;;;;;;4975771;28;19906;-74
2021/10/24 11:18:32;;;;;;;;;;;13.80;99.90;;;;;;4976111;28;19906;-74
2021/10/24 11:20:58;;;;;;;;;;;13.80;99.90;;;;;;4975509;28;20040;-73
2021/10/24 11:23:29;;;;;;;;;;;13.70;99.90;;;;;;4975351;28;19957;-73
2021/10/24 11:25:54;;;;;;;;;;;13.70;99.90;;;;;;4975659;28;20318;-74
2021/10/24 11:28:25;;;;;;;;;;;13.70;99.90;;;;;;4974924;28;19925;-73
2021/10/24 11:31:06;;;;;;;;;;;13.70;99.90;;;;;;4975316;28;19914;-74
2021/10/24 11:33:45;;;;;;;;;;;13.80;99.90;;;;;;4975285;28;20270;-73
2021/10/24 11:36:11;;;;;;;;;;;13.80;99.90;;;;;;4975272;28;19910;-74
2021/10/24 11:38:37;;;;;;;;;;;13.90;99.90;;;;;;4975203;28;19906;-74
2021/10/24 11:41:02;;;;;;;;;;;13.90;99.90;;;;;;4975713;28;19913;-74
2021/10/24 11:43:29;;;;;;;;;;;13.90;99.90;;;;;;4975376;28;20275;-74
2021/10/24 11:45:56;;;;;;;;;;;14.00;99.90;;;;;;4975010;28;19910;-74
2021/10/24 11:48:28;;;;;;;;;;;14.00;99.90;;;;;;4975081;28;20366;-74
2021/10/24 11:50:55;;;;;;;;;;;14.10;99.90;;;;;;4975590;28;19910;-74
2021/10/24 11:53:24;;;;;;;;;;;14.10;99.90;;;;;;4975010;28;19917;-74
2021/10/24 11:55:50;;;;;;;;;;;14.30;99.90;;;;;;4974998;28;19912;-74
2021/10/24 12:01:06;;;;;;;;;;;14.40;99.90;;;;;;4974998;28;20007;-74
2021/10/24 12:03:32;;;;;;;;;;;14.50;99.90;;;;;;4974894;28;19906;-74
2021/10/24 12:05:58;;;;;;;;;;;14.60;99.90;;;;;;4974808;28;20384;-74
2021/10/24 12:08:43;;;;;;;;;;;14.60;99.90;;;;;;4975131;28;19907;-74
2021/10/24 12:11:13;;;;;;;;;;;14.60;99.90;;;;;;4975686;28;19910;-74
2021/10/24 12:13:40;;;;;;;;;;;14.70;99.90;;;;;;4978863;28;19906;-74
2021/10/24 12:16:22;;;;;;;;;;;14.70;99.90;;;;;;4979330;28;20338;-74
2021/10/24 12:18:47;;;;;;;;;;;14.70;99.90;;;;;;4978772;28;19913;-74
2021/10/24 12:21:13;;;;;;;;;;;14.80;99.90;;;;;;4978698;28;19906;-74
2021/10/24 12:23:39;;;;;;;;;;;14.80;99.90;;;;;;4978501;28;19906;-74
2021/10/24 12:26:06;;;;;;;;;;;15.00;99.90;;;;;;4978496;28;19953;-74
2021/10/24 12:28:38;;;;;;;;;;;15.00;99.90;;;;;;4978354;28;19918;-73
2021/10/24 12:31:05;;;;;;;;;;;15.10;99.90;;;;;;4979116;28;20374;-74
2021/10/24 12:33:32;;;;;;;;;;;15.10;99.90;;;;;;4978491;28;19910;-74
2021/10/24 12:36:00;;;;;;;;;;;15.10;99.90;;;;;;4979052;28;19913;-73
2021/10/24 12:38:45;;;;;;;;;;;15.20;99.90;;;;;;4978409;28;19906;-74
2021/10/24 12:41:11;;;;;;;;;;;15.20;99.90;;;;;;4978346;28;19917;-74
2021/10/24 12:43:47;;;;;;;;;;;15.20;99.90;;;;;;4978863;28;19910;-73
2021/10/24 12:46:12;;;;;;;;;;;15.20;99.90;;;;;;4978182;28;20310;-74
2021/10/24 12:48:41;;;;;;;;;;;15.20;99.90;;;;;;4978139;28;19906;-74
2021/10/24 12:51:20;;;;;;;;;;;15.20;99.90;;;;;;4978164;28;19928;-74
2021/10/24 12:53:45;;;;;;;;;;;15.20;99.90;;;;;;4978454;28;19906;-74
2021/10/24 12:56:11;;;;;;;;;;;15.10;99.90;;;;;;4978021;28;19917;-74
2021/10/24 12:58:36;;;;;;;;;;;15.00;99.90;;;;;;4978377;28;19910;-74
2021/10/24 13:01:02;;;;;;;;;;;15.00;99.90;;;;;;4978039;28;19906;-74
2021/10/24 13:03:28;;;;;;;;;;;15.00;99.90;;;;;;4977966;28;19941;-73
2021/10/24 13:05:53;;;;;;;;;;;15.00;99.90;;;;;;4978095;28;19932;-74
2021/10/24 13:08:19;;;;;;;;;;;15.00;99.90;;;;;;4977858;28;19929;-74
2021/10/24 13:10:45;;;;;;;;;;;15.10;99.90;;;;;;4977783;28;20409;-74
2021/10/24 13:13:10;;;;;;;;;;;15.10;99.90;;;;;;4978036;28;19906;-74
2021/10/24 13:15:36;;;;;;;;;;;15.20;99.90;;;;;;4977738;28;19906;-74
2021/10/24 13:18:01;;;;;;;;;;;15.20;99.90;;;;;;4978235;28;19906;-74
2021/10/24 13:20:27;;;;;;;;;;;15.10;99.90;;;;;;4977636;28;19906;-74
2021/10/24 13:22:54;;;;;;;;;;;15.10;99.90;;;;;;4977235;28;20252;-74
2021/10/24 13:25:24;;;;;;;;;;;15.10;99.90;;;;;;4977450;28;20405;-74
2021/10/24 13:27:50;;;;;;;;;;;15.20;99.90;;;;;;4977409;28;19918;-74
2021/10/24 13:30:16;;;;;;;;;;;15.20;99.90;;;;;;4977763;28;19906;-74
2021/10/24 13:32:42;;;;;;;;;;;15.20;99.90;;;;;;4977474;28;19953;-74
2021/10/24 13:35:08;;;;;;;;;;;15.20;99.90;;;;;;4977651;28;19950;-74
2021/10/24 13:37:33;;;;;;;;;;;15.20;99.90;;;;;;4977581;28;19906;-74
2021/10/24 13:39:59;;;;;;;;;;;15.30;99.90;;;;;;4977301;28;19906;-73
2021/10/24 13:42:24;;;;;;;;;;;15.30;99.90;;;;;;4977546;28;20433;-74
2021/10/24 13:44:51;;;;;;;;;;;15.40;99.90;;;;;;4977143;28;19910;-74
2021/10/24 13:47:16;;;;;;;;;;;15.40;99.90;;;;;;4992079;28;19957;-74
2021/10/24 13:49:42;;;;;;;;;;;15.40;99.90;;;;;;4977115;28;19906;-74
2021/10/24 13:52:08;;;;;;;;;;;15.50;99.90;;;;;;4977299;28;19906;-74
2021/10/24 13:54:33;;;;;;;;;;;15.50;99.90;;;;;;4977512;28;19906;-74
2021/10/24 13:56:59;;;;;;;;;;;15.50;99.90;;;;;;4976853;28;19913;-74
2021/10/24 13:59:24;;;;;;;;;;;15.50;99.90;;;;;;4977201;28;19914;-74
2021/10/24 14:01:50;;;;;;;;;;;15.50;99.90;;;;;;4976872;28;20429;-74
2021/10/24 14:04:15;;;;;;;;;;;15.50;99.90;;;;;;4977265;28;20029;-74
2021/10/24 14:06:41;;;;;;;;;;;15.40;99.90;;;;;;4977065;28;19910;-74
2021/10/24 14:09:06;;;;;;;;;;;15.50;99.90;;;;;;4977264;28;19988;-74
2021/10/24 14:11:32;;;;;;;;;;;15.50;99.90;;;;;;4976683;28;19910;-74
2021/10/24 14:13:58;;;;;;;;;;;15.40;99.90;;;;;;4976665;28;19906;-74
2021/10/24 14:16:23;;;;;;;;;;;15.40;99.90;;;;;;4976885;28;19913;-74
2021/10/24 14:18:49;;;;;;;;;;;15.40;99.90;;;;;;4976521;28;19906;-74
2021/10/24 14:21:15;;;;;;;;;;;15.40;99.90;;;;;;4976467;28;20318;-74
2021/10/24 14:23:41;;;;;;;;;;;15.40;99.90;;;;;;4976462;28;20284;-74